Scottsmoor, Florida
Current Conditions -  °F | °C
As of 6:58 PM on Friday 24 Oct 2014 (Local Time) from KTTS Reporting Station
Broken Clouds Broken Clouds  
Wind Chill: 71°   Ceiling: 4500
Heat Index: 71°   Visibility: 10mi
Dew Point: 57°   Wind: 6mph
Humidity: 62%   Direction: 50°NE
Pressure: 29.92"   Gusts: NA
Location:  28.77°N, 80.88°W
Report Text: KTTS 242258Z AUTO 05005KT 10SM BKN045 22/14 A2992 RMK AO2 SLP135 T02160141 VISNO RWY33 CHINO RWY33
Loading
Personal Weather Stations






























Interactive Weather Map
Tropical Storm Tracking
New forecast layout! Learn more

10-Day Weather Forecast

Advertisements
Track Severe Weather on mobile